Time;durP1;ratioP1;P1;durP2;ratioP2;P2;SDS_P1;SDS_P2;PMS_P1;PMS_P2;Temp;Humidity;BMP_temperature;BMP_pressure;BME280_temperature;BME280_humidity;BME280_pressure;Samples;Min_cycle;Max_cycle;Signal;HPM_P1;HPM_P2
2023/08/19 00:01:07;;;;;;;6.05;3.03;;;31.20;99.90;;;;;;5047131;28;20029;-57
2023/08/19 00:03:34;;;;;;;11.38;3.83;;;31.20;99.90;;;;;;5046909;28;20017;-54
2023/08/19 00:06:07;;;;;;;7.88;3.45;;;31.10;99.90;;;;;;5046867;28;20025;-58
2023/08/19 00:08:35;;;;;;;8.35;3.10;;;31.20;99.90;;;;;;5045975;28;20021;-55
2023/08/19 00:11:03;;;;;;;7.00;2.72;;;31.20;99.90;;;;;;5046847;28;20057;-54
2023/08/19 00:13:31;;;;;;;5.75;2.80;;;;;;;;;;5046303;28;20052;-55
2023/08/19 00:15:58;;;;;;;11.73;3.53;;;;;;;;;;5046914;28;20321;-56
2023/08/19 00:18:24;;;;;;;16.30;3.90;;;;;;;;;;5045475;28;20037;-56
2023/08/19 00:20:51;;;;;;;14.00;9.85;;;;;;;;;;5046403;28;20032;-55
2023/08/19 00:23:25;;;;;;;11.27;5.55;;;;;;;;;;5046483;28;20383;-56
2023/08/19 00:25:51;;;;;;;10.70;5.13;;;;;;;;;;5046783;28;20040;-55
2023/08/19 00:28:18;;;;;;;10.40;4.25;;;;;;;;;;5046473;28;20152;-61
2023/08/19 00:30:45;;;;;;;11.15;4.38;;;;;;;;;;5046573;28;20040;-53
2023/08/19 00:33:11;;;;;;;7.47;3.95;;;;;;;;;;5046143;28;20040;-57
2023/08/19 00:35:39;;;;;;;8.18;3.10;;;;;;;;;;5046063;28;20032;-55
2023/08/19 00:38:06;;;;;;;6.13;2.92;;;;;;;;;;5046155;28;20025;-57
2023/08/19 00:40:34;;;;;;;6.90;2.40;;;;;;;;;;5046060;28;20029;-52
2023/08/19 00:43:01;;;;;;;7.00;2.20;;;;;;;;;;5045924;28;20025;-54
2023/08/19 00:45:27;;;;;;;4.63;1.90;;;;;;;;;;5046253;28;20033;-59
2023/08/19 00:47:54;;;;;;;8.60;2.75;;;;;;;;;;5045847;28;20040;-52
2023/08/19 00:50:21;;;;;;;6.53;1.88;;;;;;;;;;5045854;28;20036;-56
2023/08/19 00:52:48;;;;;;;7.90;2.08;;;;;;;;;;5045921;28;20278;-55
2023/08/19 00:55:14;;;;;;;5.60;1.83;;;;;;;;;;5046069;28;20025;-56
2023/08/19 00:57:42;;;;;;;7.65;2.20;;;;;;;;;;5045621;28;20313;-54
2023/08/19 01:00:09;;;;;;;7.75;3.63;;;;;;;;;;5043967;28;20101;-56
2023/08/19 01:02:36;;;;;;;9.77;2.40;;;;;;;;;;5045525;28;20336;-62
2023/08/19 01:05:02;;;;;;;7.38;1.90;;;;;;;;;;5045449;28;20097;-58
2023/08/19 01:07:31;;;;;;;6.22;1.70;;;;;;;;;;5045578;28;20341;-53
2023/08/19 01:10:23;;;;;;;4.85;1.50;;;;;;;;;;5044524;28;20029;-54
2023/08/19 01:13:16;;;;;;;7.53;1.85;;;;;;;;;;5042016;28;20037;-55
2023/08/19 01:16:06;;;;;;;6.35;1.67;;;;;;;;;;5026092;28;20044;-54
2023/08/19 01:18:34;;;;;;;8.57;1.83;;;;;;;;;;5039755;28;20322;-54
2023/08/19 01:21:02;;;;;;;5.30;1.50;;;;;;;;;;5045110;28;20298;-55
2023/08/19 01:23:38;;;;;;;4.63;1.35;;;;;;;;;;5045054;28;20029;-54
2023/08/19 01:26:05;;;;;;;7.78;1.63;;;;;;;;;;5043601;28;20221;-58
2023/08/19 01:28:32;;;;;;;7.45;1.77;;;;;;;;;;5038895;28;20281;-55
2023/08/19 01:31:00;;;;;;;7.10;1.35;;;;;;;;;;5025277;28;20029;-55
2023/08/19 01:33:26;;;;;;;4.90;1.17;;;;;;;;;;5024754;28;20036;-56
2023/08/19 01:35:53;;;;;;;5.50;1.60;;;;;;;;;;5030647;28;20025;-51
2023/08/19 01:38:25;;;;;;;7.53;1.70;;;;;;;;;;5044257;28;20027;-55
2023/08/19 01:40:52;;;;;;;4.32;1.42;;;;;;;;;;5046969;28;20086;-55
2023/08/19 01:43:19;;;;;;;5.68;1.50;;;;;;;;;;5045031;28;20022;-55
2023/08/19 01:45:46;;;;;;;5.80;1.60;;;;;;;;;;5044671;28;20025;-52
2023/08/19 01:48:12;;;;;;;7.53;1.30;;;;;;;;;;5044746;28;20033;-59
2023/08/19 01:50:39;;;;;;;6.28;2.00;;;;;;;;;;5044610;28;20056;-55
2023/08/19 01:53:06;;;;;;;8.80;1.60;;;;;;;;;;5044798;28;20017;-57
2023/08/19 01:55:33;;;;;;;6.00;1.75;;;;;;;;;;5044358;28;20053;-57
2023/08/19 01:57:59;;;;;;;5.72;2.50;;;;;;;;;;5044046;28;20017;-60
2023/08/19 02:00:26;;;;;;;6.28;2.50;;;;;;;;;;5054371;28;20052;-57
2023/08/19 02:02:52;;;;;;;8.13;2.63;;;;;;;;;;5064501;28;20029;-60
2023/08/19 02:05:19;;;;;;;5.93;2.53;;;;;;;;;;5064658;28;20376;-57
2023/08/19 02:07:46;;;;;;;7.07;2.22;;;;;;;;;;5064666;28;20021;-59
2023/08/19 02:10:13;;;;;;;6.47;2.10;;;;;;;;;;5058047;28;20028;-58
2023/08/19 02:12:40;;;;;;;6.50;1.58;;;;;;;;;;5056041;28;20021;-58
2023/08/19 02:15:07;;;;;;;7.50;1.40;;;;;;;;;;5044517;28;20044;-62
2023/08/19 02:17:35;;;;;;;8.57;1.20;;;;;;;;;;5044375;28;20045;-55
2023/08/19 02:20:02;;;;;;;6.25;1.40;;;;;;;;;;5044260;28;20037;-56
2023/08/19 02:22:29;;;;;;;3.33;1.08;;;;;;;;;;5044203;28;20090;-57
2023/08/19 02:24:56;;;;;;;5.78;1.25;;;;;;;;;;5043504;28;20029;-59
2023/08/19 02:27:22;;;;;;;6.20;1.30;;;;;;;;;;5048041;28;20021;-58
2023/08/19 02:29:49;;;;;;;4.90;1.40;;;;;;;;;;5043476;28;20049;-54
2023/08/19 02:32:16;;;;;;;4.85;1.25;;;;;;;;;;5042911;28;20029;-57
2023/08/19 02:34:43;;;;;;;4.45;1.23;;;;;;;;;;5042233;28;20030;-60
2023/08/19 02:37:13;;;;;;;3.95;1.13;;;;;;;;;;5044620;28;20029;-54
2023/08/19 02:39:41;;;;;;;4.10;1.17;;;;;;;;;;5043750;28;20230;-55
2023/08/19 02:42:08;;;;;;;3.53;1.15;;;;;;;;;;5044442;28;20048;-57
2023/08/19 02:44:36;;;;;;;7.25;1.30;;;;;;;;;;5044939;28;20182;-55
2023/08/19 02:47:02;;;;;;;3.15;1.20;;;;;;;;;;5043596;28;20085;-57
2023/08/19 02:49:29;;;;;;;4.80;1.30;;;;;;;;;;5043885;28;20104;-52
2023/08/19 02:51:56;;;;;;;2.63;0.70;;;;;;;;;;5043730;28;20021;-53
2023/08/19 02:54:23;;;;;;;5.00;1.38;;;;;;;;;;5043779;28;20333;-54
2023/08/19 02:56:50;;;;;;;4.40;1.20;;;;;;;;;;5043854;28;20055;-58
2023/08/19 02:59:16;;;;;;;4.28;0.95;;;;;;;;;;5043720;28;20030;-60
2023/08/19 03:01:44;;;;;;;5.35;1.42;;;;;;;;;;5043406;28;20384;-60
2023/08/19 03:04:11;;;;;;;7.47;1.15;;;;;;;;;;5043813;28;20029;-54
2023/08/19 03:06:39;;;;;;;4.57;1.40;;;;;;;;;;5043721;28;20305;-54
2023/08/19 03:09:05;;;;;;;4.25;1.33;;;;;;;;;;5042552;28;20060;-58
2023/08/19 03:11:32;;;;;;;7.78;1.40;;;;;;;;;;5036568;28;20045;-54
2023/08/19 03:14:03;;;;;;;3.38;1.10;;;;;;;;;;5032045;28;20022;-58
2023/08/19 03:16:30;;;;;;;6.57;1.20;;;;;;;;;;5024032;28;20361;-56
2023/08/19 03:18:56;;;;;;;8.05;1.50;;;;;;;;;;5024562;28;20026;-54
2023/08/19 03:21:23;;;;;;;7.95;1.20;;;;;;;;;;5024295;28;20128;-57
2023/08/19 03:23:49;;;;;;;6.65;1.48;;;;;;;;;;5039932;28;20032;-56
2023/08/19 03:26:16;;;;;;;4.47;1.38;;;;;;;;;;5032717;28;20036;-59
2023/08/19 03:28:43;;;;;;;3.53;1.02;;;;;;;;;;5023309;28;20049;-58
2023/08/19 03:31:10;;;;;;;6.50;1.00;;;;;;;;;;5023033;28;20080;-56
2023/08/19 03:33:39;;;;;;;4.35;1.30;;;;;;;;;;5023583;28;20281;-57
2023/08/19 03:36:06;;;;;;;6.90;1.13;;;;;;;;;;5023433;28;20030;-55
2023/08/19 03:38:32;;;;;;;4.47;1.10;;;;;;;;;;5023596;28;20041;-56
2023/08/19 03:40:59;;;;;;;5.88;1.25;;;;;;;;;;5037864;28;20050;-57
2023/08/19 03:43:26;;;;;;;5.53;1.38;;;;;;;;;;5036139;28;20325;-61
2023/08/19 03:45:55;;;;;;;8.35;1.35;;;;;;;;;;5026171;28;20034;-54
2023/08/19 03:48:22;;;;;;;5.88;1.20;;;;;;;;;;5026997;28;20026;-56
2023/08/19 03:50:49;;;;;;;5.60;1.38;;;;;;;;;;5025268;28;20046;-56
2023/08/19 03:53:15;;;;;;;7.25;1.63;;;;;;;;;;5026720;28;20302;-57
2023/08/19 03:55:42;;;;;;;10.90;4.03;;;;;;;;;;5026553;28;20080;-59
2023/08/19 03:58:08;;;;;;;12.52;6.10;;;;;;;;;;5027487;28;20060;-55
2023/08/19 04:00:35;;;;;;;10.57;4.50;;;;;;;;;;5034267;28;20262;-56
2023/08/19 04:03:02;;;;;;;7.82;2.58;;;;;;;;;;5047051;28;20042;-59
2023/08/19 04:05:29;;;;;;;8.30;2.70;;;;;;;;;;5046218;28;20099;-56
2023/08/19 04:07:56;;;;;;;5.20;2.10;;;;;;;;;;5050866;28;20088;-55
2023/08/19 04:10:23;;;;;;;6.93;2.25;;;;;;;;;;5066596;28;20037;-56
2023/08/19 04:12:50;;;;;;;5.18;2.33;;;;;;;;;;5066672;28;20079;-56
2023/08/19 04:15:17;;;;;;;5.38;2.15;;;;;;;;;;5066384;28;20037;-55
2023/08/19 04:17:44;;;;;;;4.90;1.95;;;;;;;;;;5066266;28;20029;-55
2023/08/19 04:20:13;;;;;;;20.45;2.20;;;;;;;;;;5065984;28;20033;-58
2023/08/19 04:22:40;;;;;;;5.60;1.73;;;;;;;;;;5049382;28;20340;-55
2023/08/19 04:25:07;;;;;;;7.10;1.70;;;;;;;;;;5044716;28;20060;-54
2023/08/19 04:27:34;;;;;;;6.88;1.85;;;;;;;;;;5045834;28;20238;-57
2023/08/19 04:30:00;;;;;;;10.55;1.98;;;;;;;;;;5047553;28;20221;-58
2023/08/19 04:32:27;;;;;;;10.00;1.70;;;;;;;;;;5046147;28;20033;-57
2023/08/19 04:34:54;;;;;;;5.80;1.60;;;;;;;;;;5045955;28;20025;-55
2023/08/19 04:37:20;;;;;;;4.97;1.58;;;;;;;;;;5046135;28;20033;-54
2023/08/19 04:39:47;;;;;;;7.60;1.58;;;;;;;;;;5045850;28;20033;-53
2023/08/19 04:42:14;;;;;;;9.05;1.70;;;;;;;;;;5044889;28;20350;-53
2023/08/19 04:44:40;;;;;;;8.27;1.98;;;;;;;;;;5024792;28;20030;-56
2023/08/19 04:47:07;;;;;;;6.03;1.75;;;;;;;;;;5025893;28;20075;-57
2023/08/19 04:49:34;;;;;;;6.57;1.38;;;;;;;;;;5028894;28;20341;-56
2023/08/19 04:52:00;;;;;;;6.57;1.40;;;;;;;;;;5045655;28;20084;-55
2023/08/19 04:54:27;;;;;;;5.18;1.50;;;;;;;;;;5045216;28;20033;-57
2023/08/19 04:56:53;;;;;;;4.03;1.35;;;;;;;;;;5045627;28;20025;-59
2023/08/19 04:59:20;;;;;;;7.85;1.30;;;;;;;;;;5045610;28;20225;-60
2023/08/19 05:01:47;;;;;;;6.10;1.83;;;;;;;;;;5045331;28;20033;-57
2023/08/19 05:04:13;;;;;;;7.45;1.75;;;;;;;;;;5045470;28;20033;-57
2023/08/19 05:06:40;;;;;;;5.75;1.50;;;;;;;;;;5045459;28;20356;-56
2023/08/19 05:09:06;;;;;;;6.15;1.52;;;;;;;;;;5045312;28;20038;-55
2023/08/19 05:11:33;;;;;;;4.90;1.45;;;;;;;;;;5045395;28;20278;-53
2023/08/19 05:14:00;;;;;;;7.22;1.42;;;;;;;;;;5045843;28;20033;-54
2023/08/19 05:16:26;;;;;;;5.10;1.52;;;;;;;;;;5045311;28;20040;-56
2023/08/19 05:19:04;;;;;;;6.70;1.50;;;;;;;;;;5045861;28;20071;-52
2023/08/19 05:21:31;;;;;;;5.38;1.50;;;;;;;;;;5044328;28;20033;-59
2023/08/19 05:23:57;;;;;;;3.75;1.30;;;;;;;;;;5045476;28;20036;-59
2023/08/19 05:26:24;;;;;;;4.75;1.38;;;;;;;;;;5045149;28;20310;-57
2023/08/19 05:28:51;;;;;;;8.27;1.48;;;;;;;;;;5045010;28;20108;-57
2023/08/19 05:31:17;;;;;;;3.78;1.10;;;;;;;;;;5044926;28;20044;-59
2023/08/19 05:33:44;;;;;;;3.97;1.20;;;;;;;;;;5044817;28;20049;-58
2023/08/19 05:36:10;;;;;;;5.70;1.20;;;;;;;;;;5044891;28;20045;-59
2023/08/19 05:38:37;;;;;;;3.60;1.35;;;;;;;;;;5045180;28;20355;-52
2023/08/19 05:41:04;;;;;;;4.75;1.33;;;;;;;;;;5044666;28;20025;-54
2023/08/19 05:43:30;;;;;;;4.47;1.30;;;;;;;;;;5045167;28;20033;-56
2023/08/19 05:45:58;;;;;;;5.05;1.15;;;;;;;;;;5044524;28;20056;-53
2023/08/19 05:48:25;;;;;;;5.68;1.10;;;;;;;;;;5045037;28;20045;-56
2023/08/19 05:50:51;;;;;;;3.65;1.20;;;;;;;;;;5044868;28;20059;-55
2023/08/19 05:53:18;;;;;;;6.75;1.25;;;;;;;;;;5044431;28;20036;-58
2023/08/19 05:55:45;;;;;;;4.07;1.10;;;;;;;;;;5044562;28;20041;-58
2023/08/19 05:58:11;;;;;;;3.35;1.08;;;;;;;;;;5044794;28;20036;-58
2023/08/19 06:00:38;;;;;;;3.08;1.20;;;;;;;;;;5044295;28;20076;-58
2023/08/19 06:03:05;;;;;;;5.75;1.20;;;;;;;;;;5044675;28;20047;-58
2023/08/19 06:05:31;;;;;;;4.25;1.27;;;;;;;;;;5043968;28;20033;-56
2023/08/19 06:08:00;;;;;;;6.13;1.17;;;;;;;;;;5044524;28;20033;-55
2023/08/19 06:10:26;;;;;;;4.15;1.30;;;;;;;;;;5044255;28;20021;-55
2023/08/19 06:12:53;;;;;;;6.22;1.35;;;;;;;;;;5044574;28;20120;-52
2023/08/19 06:15:19;;;;;;;4.30;1.10;;;;;;;;;;5044119;28;20092;-56
2023/08/19 06:17:46;;;;;;;5.35;1.27;;;;;;;;;;5044412;28;20036;-56
2023/08/19 06:20:13;;;;;;;4.97;1.23;;;;;;;;;;5044358;28;20100;-59
2023/08/19 06:22:39;;;;;;;7.65;1.92;;;;;;;;;;5044035;28;20071;-57
2023/08/19 06:25:06;;;;;;;6.47;1.70;;;;;;;;;;5044012;28;20041;-58
2023/08/19 06:27:33;;;;;;;4.65;1.40;;;;;;;;;;5044070;28;20037;-57
2023/08/19 06:30:00;;;;;;;6.20;1.40;;;;;;;;;;5043927;28;20222;-56
2023/08/19 06:32:27;;;;;;;6.70;1.33;;;;;;;;;;5044615;28;20018;-57
2023/08/19 06:34:53;;;;;;;5.38;1.50;;;;;;;;;;5043615;28;20333;-57
2023/08/19 06:37:20;;;;;;;4.60;1.10;;;;;;;;;;5043945;28;20272;-56
2023/08/19 06:39:50;;;;;;;3.35;1.00;;;;;;;;;;5043890;28;20104;-56
2023/08/19 06:42:17;;;;;;;5.10;1.17;;;;;;;;;;5043979;28;20029;-57
2023/08/19 06:44:44;;;;;;;4.43;1.27;;;;;;;;;;5043956;28;20033;-60
2023/08/19 06:47:11;;;;;;;6.30;1.27;;;;;;;;;;5044196;28;20260;-59
2023/08/19 06:49:38;;;;;;;6.03;1.63;;;;;;;;;;5043684;28;20057;-55
2023/08/19 06:52:05;;;;;;;7.55;1.15;;;;;;;;;;5043891;28;20201;-57
2023/08/19 06:54:32;;;;;;;3.13;1.20;;;;;;;;;;5043565;28;20025;-59
2023/08/19 06:57:09;;;;;;;6.65;1.40;;;;;;;;;;5043546;28;20221;-55
2023/08/19 06:59:38;;;;;;;4.95;1.30;;;;;;;;;;5043611;28;20036;-58
2023/08/19 07:02:05;;;;;;;9.95;1.70;;;;;;;;;;5043546;28;20033;-54
2023/08/19 07:04:32;;;;;;;4.20;1.20;;;;;;;;;;5043716;28;20033;-53
2023/08/19 07:07:00;;;;;;;3.38;1.10;;;;;;;;;;5043475;28;20037;-55
2023/08/19 07:09:27;;;;;;;6.78;1.05;;;;;;;;;;5043509;28;20056;-51
2023/08/19 07:11:54;;;;;;;7.75;1.35;;;;;;;;;;5043592;28;20029;-52
2023/08/19 07:14:22;;;;;;;4.65;1.20;;;;;;;;;;5043210;28;20089;-53
2023/08/19 07:16:50;;;;;;;7.05;1.65;;;;;;;;;;5045286;28;20041;-53
2023/08/19 07:19:19;;;;;;;4.82;1.10;;;;;;;;;;5047484;28;20038;-53
2023/08/19 07:21:46;;;;;;;4.20;1.23;;;;;;;;;;5047215;28;20025;-52
2023/08/19 07:24:13;;;;;;;5.00;1.25;;;;;;;;;;5047221;28;20218;-51
2023/08/19 07:26:40;;;;;;;4.22;1.10;;;;;;;;;;5047364;28;20030;-55
2023/08/19 07:29:07;;;;;;;2.63;1.20;;;;;;;;;;5046917;28;20046;-53
2023/08/19 07:31:34;;;;;;;3.80;1.10;;;;;;;;;;5047197;28;20037;-54
2023/08/19 07:34:00;;;;;;;7.40;1.38;;;;;;;;;;5047605;28;20079;-51
2023/08/19 07:36:27;;;;;;;5.07;1.60;;;;;;;;;;5047379;28;20092;-59
2023/08/19 07:38:54;;;;;;;6.50;1.55;;;;;;;;;;5047655;28;20029;-59
2023/08/19 07:41:21;;;;;;;4.18;1.23;;;;;;;;;;5046936;28;20036;-60
2023/08/19 07:43:48;;;;;;;6.97;1.30;;;;;;;;;;5047222;28;20041;-55
2023/08/19 07:46:15;;;;;;;5.20;1.08;;;;;;;;;;5046492;28;20179;-56
2023/08/19 07:48:43;;;;;;;9.43;1.40;;;;;;;;;;5047256;28;20025;-59
2023/08/19 07:51:09;;;;;;;7.70;1.67;;;;;;;;;;5046853;28;20336;-54
2023/08/19 07:53:36;;;;;;;12.65;1.55;;;;;;;;;;5047298;28;20044;-55
2023/08/19 07:56:03;;;;;;;7.22;1.27;;;;;;;;;;5046810;28;20079;-54
2023/08/19 07:58:30;;;;;;;10.73;1.52;;;;;;;;;;5047003;28;20064;-52
2023/08/19 08:00:57;;;;;;;6.25;1.38;;;;;;;;;;5046652;28;20222;-56
2023/08/19 08:03:24;;;;;;;5.35;1.45;;;;;;;;;;5046923;28;20033;-59
2023/08/19 08:05:50;;;;;;;6.38;1.30;;;;;;;;;;5046512;28;20076;-57
2023/08/19 08:08:17;;;;;;;8.07;1.50;;;;;;;;;;5046664;28;20056;-52
2023/08/19 08:10:44;;;;;;;5.53;1.27;;;;;;;;;;5046741;28;20044;-57
2023/08/19 08:13:10;;;;;;;6.20;1.38;;;;;;;;;;5046724;28;20013;-59
2023/08/19 08:15:37;;;;;;;12.13;1.33;;;;;;;;;;5046598;28;20041;-62
2023/08/19 08:18:04;;;;;;;7.97;1.60;;;;;;;;;;5061934;28;20363;-57
2023/08/19 08:20:32;;;;;;;12.13;1.70;;;;;;;;;;5046350;28;20117;-57
2023/08/19 08:22:59;;;;;;;7.65;1.50;;;;;;;;;;5046451;28;20056;-57
2023/08/19 08:25:26;;;;;;;5.75;1.40;;;;;;;;;;5046452;28;20034;-54
2023/08/19 08:27:52;;;;;;;7.50;1.42;;;;;;;;;;5049164;28;20041;-57
2023/08/19 08:30:19;;;;;;;5.25;1.30;;;;;;;;;;5066171;28;20041;-56
2023/08/19 08:32:46;;;;;;;7.07;1.52;;;;;;;;;;5066374;28;20041;-57
2023/08/19 08:35:12;;;;;;;6.05;1.40;;;;;;;;;;5065865;28;20029;-56
2023/08/19 08:37:39;;;;;;;7.30;1.25;;;;;;;;;;5066204;28;20150;-59
2023/08/19 08:40:07;;;;;;;4.65;1.42;;;;;;;;;;5065885;28;20040;-57
2023/08/19 08:42:33;;;;;;;8.27;1.30;;;;;;;;;;5066013;28;20374;-56
2023/08/19 08:45:00;;;;;;;4.43;1.33;;;;;;;;;;5065599;28;20045;-59
2023/08/19 08:47:28;;;;;;;6.25;1.30;;;;;;;;;;5065469;28;20088;-57
2023/08/19 08:49:56;;;;;;;9.43;1.83;;;;;;;;;;5065910;28;20035;-56
2023/08/19 08:52:22;;;;;;;6.72;1.40;;;;;;;;;;5065512;28;20037;-53
2023/08/19 08:54:51;;;;;;;5.60;1.38;;;;;;;;;;5066055;28;20286;-54
2023/08/19 08:57:18;;;;;;;6.10;1.60;;;;;;;;;;5065560;28;20023;-59
2023/08/19 08:59:45;;;;;;;6.88;1.40;;;;;;;;;;5065402;28;20049;-60
2023/08/19 09:02:12;;;;;;;4.47;1.60;;;;;;;;;;5065409;28;20025;-56
2023/08/19 09:04:46;;;;;;;5.93;1.70;;;;;;;;;;5065316;28;20021;-55
2023/08/19 09:07:32;;;;;;;8.60;1.95;;;;;;;;;;5065460;28;20255;-55
2023/08/19 09:10:00;;;;;;;8.75;3.08;;;;;;;;;;5065264;28;20024;-54
2023/08/19 09:12:27;;;;;;;9.85;3.60;;;;;;;;;;5065378;28;20305;-57
2023/08/19 09:14:59;;;;;;;7.65;2.70;;;;;;;;;;5065209;28;20036;-58
2023/08/19 09:17:25;;;;;;;6.88;2.25;;;;;;;;;;5065220;28;20025;-61
2023/08/19 09:19:52;;;;;;;6.75;2.00;;;;;;;;;;5065246;28;20079;-55
2023/08/19 09:22:19;;;;;;;10.80;2.38;;;;;;;;;;5065391;28;20033;-59
2023/08/19 09:24:46;;;;;;;5.55;1.90;;;;;;;;;;5065069;28;20317;-57
2023/08/19 09:27:14;;;;;;;5.57;1.95;;;;;;;;;;5065109;28;20045;-56
2023/08/19 09:29:50;;;;;;;8.73;1.98;;;;;;;;;;5064869;28;20045;-57
2023/08/19 09:32:18;;;;;;;6.35;1.90;;;;;;;;;;5065012;28;20283;-57
2023/08/19 09:34:44;;;;;;;4.45;1.90;;;;;;;;;;5064834;28;20083;-58
2023/08/19 09:37:11;;;;;;;17.05;1.70;;;;;;;;;;5046316;28;20025;-55
2023/08/19 09:39:38;;;;;;;7.03;1.80;;;;;;;;;;5043872;28;20034;-55
2023/08/19 09:42:05;;;;;;;7.97;1.95;;;;;;;;;;5044627;28;20041;-55
2023/08/19 09:44:32;;;;;;;10.18;2.22;;;;;;;;;;5044804;28;20151;-59
2023/08/19 09:47:00;;;;;;;5.13;1.70;;;;;;;;;;5044558;28;20025;-56
2023/08/19 09:49:27;;;;;;;4.93;1.88;;;;;;;;;;5044733;28;20025;-54
2023/08/19 09:51:54;;;;;;;5.65;1.90;;;;;;;;;;5044098;28;20023;-59
2023/08/19 09:54:21;;;;;;;6.63;1.52;;;;;;;;;;5044467;28;20079;-58
2023/08/19 09:56:58;;;;;;;8.40;2.00;;;;;;;;;;5044419;28;20030;-50
2023/08/19 09:59:25;;;;;;;7.22;1.88;;;;;;;;;;5044435;28;20074;-57
2023/08/19 10:01:52;;;;;;;6.65;1.50;;;;;;;;;;5044138;28;20052;-59
2023/08/19 10:04:19;;;;;;;4.32;1.67;;;;;;;;;;5044280;28;20025;-58
2023/08/19 10:06:54;;;;;;;6.28;2.15;;;;;;;;;;5044129;28;20025;-52
2023/08/19 10:09:24;;;;;;;4.03;1.35;;;;;;;;;;5044475;28;20025;-51
2023/08/19 10:11:52;;;;;;;8.02;1.40;;;;;;;;;;5044147;28;20037;-57
2023/08/19 10:14:20;;;;;;;10.23;1.95;;;;;;;;;;5044172;28;20248;-62
2023/08/19 10:16:49;;;;;;;5.38;1.58;;;;;;;;;;5044398;28;20025;-60
2023/08/19 10:19:17;;;;;;;7.45;1.90;;;;;;;;;;5044626;28;20313;-60
2023/08/19 10:21:45;;;;;;;7.82;2.40;;;;;;;;;;5043789;28;20029;-52
2023/08/19 10:24:12;;;;;;;6.28;2.40;;;;;;;;;;5044212;28;20365;-54
2023/08/19 10:26:39;;;;;;;12.43;3.67;;;;;;;;;;5043958;28;20032;-54
2023/08/19 10:29:07;;;;;;;12.30;2.97;;;;;;;;;;5043803;28;20041;-59
2023/08/19 10:31:35;;;;;;;7.85;2.47;;;;;;;;;;5044091;28;20088;-57
2023/08/19 10:34:11;;;;;;;14.30;4.38;;;;;;;;;;5044325;28;20096;-57
2023/08/19 10:36:39;;;;;;;9.38;4.75;;;;;;;;;;5044022;28;20063;-58
2023/08/19 10:39:14;;;;;;;8.85;4.80;;;;;;;;;;5043723;28;20036;-58
2023/08/19 10:41:41;;;;;;;6.30;2.90;;;;;;;;;;5043673;28;20221;-57
2023/08/19 10:44:14;;;;;;;11.18;3.10;;;;;;;;;;5043888;28;20214;-53
2023/08/19 10:46:42;;;;;;;11.40;3.58;;;;;;;;;;5043578;28;20040;-57
2023/08/19 10:49:12;;;;;;;7.55;2.75;;;;;;;;;;5043660;28;20040;-54
2023/08/19 10:51:53;;;;;;;20.30;2.78;;;;;;;;;;5045593;28;20025;-57
2023/08/19 10:54:39;;;;;;;9.93;2.40;;;;;;;;;;5048162;28;20037;-56
2023/08/19 10:57:09;;;;;;;14.73;2.97;;;;;;;;;;5034917;28;20341;-57
2023/08/19 10:59:36;;;;;;;7.78;2.38;;;;;;;;;;5048307;28;20079;-59
2023/08/19 11:02:04;;;;;;;7.20;1.88;;;;;;;;;;5047932;28;20025;-54
2023/08/19 11:04:32;;;;;;;7.22;2.40;;;;;;;;;;5047714;28;20064;-56
2023/08/19 11:06:59;;;;;;;8.80;2.58;;;;;;;;;;5047788;28;20360;-56
2023/08/19 11:09:26;;;;;;;8.20;2.30;;;;;;;;;;5047782;28;20075;-53
2023/08/19 11:11:56;;;;;;;7.25;2.13;;;;;;;;;;5047447;28;20021;-53
2023/08/19 11:14:23;;;;;;;10.23;4.57;;;;;;;;;;5047621;28;20044;-58
2023/08/19 11:16:58;;;;;;;11.75;6.40;;;;;;;;;;5047860;28;20280;-55
2023/08/19 11:19:25;;;;;;;19.95;4.32;;;;;;;;;;5047684;28;20091;-56
2023/08/19 11:21:52;;;;;;;7.97;3.38;;;;;;;;;;5047321;28;20421;-51
2023/08/19 11:24:19;;;;;;;11.73;3.08;;;;;;;;;;5047332;28;20037;-58
2023/08/19 11:26:47;;;;;;;12.65;3.17;;;;;;;;;;5047626;28;20033;-56
2023/08/19 11:29:14;;;;;;;21.85;3.90;;;;;;;;;;5047030;28;20054;-56
2023/08/19 11:31:42;;;;;;;16.52;3.70;;;;;;;;;;5046271;28;20032;-57
2023/08/19 11:34:10;;;;;;;12.20;3.20;;;;;;;;;;5047141;28;20106;-56
2023/08/19 11:36:37;;;;;;;11.10;3.17;;;;;;;;;;5047221;28;20080;-57
2023/08/19 11:39:05;;;;;;;9.27;3.03;;;;;;;;;;5047748;28;20317;-56
2023/08/19 11:41:32;;;;;;;10.25;2.75;;;;;;;;;;5047103;28;20037;-54
2023/08/19 11:43:59;;;;;;;14.13;3.20;;;;;;;;;;5047450;28;20202;-57
2023/08/19 11:46:29;;;;;;;17.67;4.65;;;;;;;;;;5047169;28;20314;-56
2023/08/19 11:48:57;;;;;;;16.90;5.03;;;;;;;;;;5047425;28;20033;-55
2023/08/19 11:51:26;;;;;;;13.70;4.95;;;;;;;;;;5046916;28;20260;-59
2023/08/19 11:53:54;;;;;;;15.15;5.38;;;;;;;;;;5047254;28;20025;-59
2023/08/19 11:56:21;;;;;;;11.45;4.47;;;;;;;;;;5046733;28;20041;-60
2023/08/19 11:58:52;;;;;;;9.43;3.50;;;;;;;;;;5047292;28;20037;-59
2023/08/19 12:01:19;;;;;;;11.77;4.25;;;;;;;;;;5046705;28;20028;-55
2023/08/19 12:03:47;;;;;;;12.23;3.20;;;;;;;;;;5045950;28;20087;-59
2023/08/19 12:06:14;;;;;;;9.40;3.03;;;;;;;;;;5046729;28;20385;-54
2023/08/19 12:08:42;;;;;;;6.35;2.40;;;;;;;;;;5047037;28;20029;-52
2023/08/19 12:11:09;;;;;;;10.18;2.40;;;;;;;;;;5046674;28;20106;-58
2023/08/19 12:13:36;;;;;;;7.35;2.53;;;;;;;;;;5046979;28;20030;-56
2023/08/19 12:16:03;;;;;;;7.75;2.35;;;;;;;;;;5046632;28;20021;-58
2023/08/19 12:18:34;;;;;;;5.72;2.40;;;;;;;;;;5046700;28;20071;-58
2023/08/19 12:21:02;;;;;;;6.60;2.30;;;;;;;;;;5046338;28;20075;-57
2023/08/19 12:23:30;;;;;;;7.18;2.40;;;;;;;;;;5046489;28;20013;-57
2023/08/19 12:26:00;;;;;;;5.53;2.40;;;;;;;;;;5046206;28;20040;-56
2023/08/19 12:28:28;;;;;;;5.70;2.40;;;;;;;;;;5046346;28;20045;-54
2023/08/19 12:30:55;;;;;;;7.57;2.50;;;;;;;;;;5046162;28;20022;-56
2023/08/19 12:33:22;;;;;;;7.05;2.30;;;;;;;;;;5046404;28;20040;-56
2023/08/19 12:35:50;;;;;;;9.80;2.60;;;;;;;;;;5044899;28;20203;-57
2023/08/19 12:38:18;;;;;;;5.80;2.20;;;;;;;;;;5046380;28;20029;-56
2023/08/19 12:40:46;;;;;;;5.65;2.15;;;;;;;;;;5044463;28;20060;-54
2023/08/19 12:43:13;;;;;;;10.00;2.15;;;;;;;;;;5040285;28;20032;-59
2023/08/19 12:45:40;;;;;;;8.27;2.50;;;;;;;;;;5046002;28;20021;-51
2023/08/19 12:48:08;;;;;;;8.77;2.13;;;;;;;;;;5046122;28;20025;-54
2023/08/19 12:50:34;;;;;;;8.18;1.85;;;;;;;;;;5045668;28;20079;-55
2023/08/19 12:53:01;;;;;;;7.00;1.98;;;;;;;;;;5046104;28;20270;-59
2023/08/19 12:55:30;;;;;;;5.88;1.88;;;;;;;;;;5045657;28;20038;-52
2023/08/19 12:57:57;;;;;;;6.15;2.05;;;;;;;;;;5045800;28;20026;-59
2023/08/19 13:00:28;;;;;;;7.75;2.38;;;;;;;;;;5045785;28;20340;-56
2023/08/19 13:02:59;;;;;;;6.30;2.13;;;;;;;;;;5046107;28;20041;-55
2023/08/19 13:05:26;;;;;;;4.70;1.50;;;;;;;;;;5027955;28;20071;-59
2023/08/19 13:07:55;;;;;;;14.85;3.20;;;;;;;;;;5045301;28;20040;-53
2023/08/19 13:10:22;;;;;;;11.73;3.00;;;;;;;;;;5028138;28;20064;-53
2023/08/19 13:12:49;;;;;;;13.48;2.50;;;;;;;;;;5045632;28;20025;-53
2023/08/19 13:15:19;;;;;;;12.80;2.67;;;;;;;;;;5045275;28;20084;-59
2023/08/19 13:17:46;;;;;;;10.52;2.13;;;;;;;;;;5045546;28;20101;-56
2023/08/19 13:20:17;;;;;;;8.15;2.00;;;;;;;;;;5045627;28;20029;-56
2023/08/19 13:22:47;;;;;;;9.65;2.30;;;;;;;;;;5045386;28;20036;-59
2023/08/19 13:25:14;;;;;;;6.60;2.00;;;;;;;;;;5045664;28;20029;-54
2023/08/19 13:27:41;;;;;;;7.63;2.05;;;;;;;;;;5045313;28;20388;-57
2023/08/19 13:30:08;;;;;;;11.35;2.58;;;;;;;;;;5045290;28;20024;-58
2023/08/19 13:32:35;;;;;;;9.63;2.30;;;;;;;;;;5045620;28;20079;-56
2023/08/19 13:35:04;;;;;;;13.15;2.20;;;;;;;;;;5044995;28;20029;-56
2023/08/19 13:37:30;;;;;;;14.68;2.45;;;;;;;;;;5044853;28;20024;-58
2023/08/19 13:39:57;;;;;;;15.38;2.28;;;;;;;;;;5045275;28;20330;-53
2023/08/19 13:42:24;;;;;;;10.25;2.13;;;;;;;;;;5044954;28;20347;-56
2023/08/19 13:44:50;;;;;;;31.08;3.83;;;;;;;;;;5044744;28;20067;-51
2023/08/19 13:47:18;;;;;;;17.23;3.20;;;;;;;;;;5045129;28;20032;-53
2023/08/19 13:49:45;;;;;;;16.98;2.78;;;;;;;;;;5045199;28;20025;-57
2023/08/19 13:52:31;;;;;;;12.85;2.92;;;;;;;;;;5044760;28;20240;-56
2023/08/19 13:54:58;;;;;;;17.58;3.13;;;;;;;;;;5044611;28;20038;-58
2023/08/19 13:57:24;;;;;;;22.88;3.13;;;;;;;;;;5044359;28;20049;-58
2023/08/19 13:59:51;;;;;;;22.58;2.88;;;;;;;;;;5044386;28;20037;-55
2023/08/19 14:02:17;;;;;;;11.60;2.88;;;;;;;;;;5044567;28;20244;-55
2023/08/19 14:04:44;;;;;;;14.00;2.70;;;;;;;;;;5044499;28;20309;-57
2023/08/19 14:07:11;;;;;;;12.32;2.53;;;;;;;;;;5044490;28;20081;-57
2023/08/19 14:09:37;;;;;;;14.75;2.88;;;;;;;;;;5044356;28;20044;-56
2023/08/19 14:12:04;;;;;;;14.18;3.05;;;;;;;;;;5044392;28;20094;-54
2023/08/19 14:14:32;;;;;;;14.27;2.92;;;;;;;;;;5044636;28;20029;-59
2023/08/19 14:16:59;;;;;;;19.95;3.47;;;;;;;;;;5044437;28;20025;-55
2023/08/19 14:19:25;;;;;;;13.25;3.15;;;;;;;;;;5044438;28;20040;-55
2023/08/19 14:21:52;;;;;;;11.90;2.80;;;;;;;;;;5044241;28;20079;-55
2023/08/19 14:24:19;;;;;;;11.60;3.13;;;;;;;;;;5044215;28;20364;-54
2023/08/19 14:26:45;;;;;;;15.43;3.20;;;;;;;;;;5037235;28;20030;-56
2023/08/19 14:29:12;;;;;;;16.52;3.22;;;;;;;;;;5024059;28;20149;-55
2023/08/19 14:31:45;;;;;;;15.48;3.40;;;;;;;;;;5024558;28;20044;-60
2023/08/19 14:34:11;;;;;;;9.65;3.22;;;;;;;;;;5026335;28;20092;-56
2023/08/19 14:36:38;;;;;;;15.82;3.47;;;;;;;;;;5042467;28;20119;-56
2023/08/19 14:39:05;;;;;;;13.25;3.78;;;;;;;;;;5034853;28;20034;-53
2023/08/19 14:41:31;;;;;;;11.27;2.80;;;;;;;;;;5024188;28;20384;-53